Time;durP1;ratioP1;P1;durP2;ratioP2;P2;SDS_P1;SDS_P2;PMS_P1;PMS_P2;Temp;Humidity;BMP_temperature;BMP_pressure;BME280_temperature;BME280_humidity;BME280_pressure;Samples;Min_cycle;Max_cycle;Signal;HPM_P1;HPM_P2
2022/11/24 00:01:04;;;;;;;6.80;2.63;;;12.80;75.40;;;-142.21;100.00;112049.66;5073232;28;20449;-73
2022/11/24 00:03:33;;;;;;;9.33;2.80;;;12.70;75.30;;;-142.21;100.00;112049.66;5074565;28;20442;-74
2022/11/24 00:06:07;;;;;;;6.77;3.00;;;12.60;75.50;;;-142.21;100.00;112049.66;5074004;28;20526;-74
2022/11/24 00:08:35;;;;;;;6.83;2.60;;;12.50;75.80;;;-142.21;99.84;112049.66;5075371;28;20435;-74
2022/11/24 00:11:08;;;;;;;5.80;2.30;;;12.50;76.00;;;-142.21;99.08;112049.66;5074243;28;20443;-74
2022/11/24 00:13:37;;;;;;;7.07;2.77;;;12.40;75.80;;;-142.21;98.96;112049.66;5075133;28;20443;-74
2022/11/24 00:16:08;;;;;;;7.37;3.03;;;12.40;75.60;;;-142.21;99.38;112049.66;5073268;28;20449;-74
2022/11/24 00:18:36;;;;;;;8.17;2.60;;;12.50;75.90;;;-142.21;99.00;112049.66;5074342;28;20482;-74
2022/11/24 00:21:03;;;;;;;6.97;2.57;;;12.40;75.80;;;-142.21;99.40;112049.66;5074285;28;20447;-74
2022/11/24 00:23:30;;;;;;;3.70;2.10;;;12.50;75.80;;;-142.21;98.62;112049.66;5074423;28;20443;-74
2022/11/24 00:26:05;;;;;;;12.63;5.50;;;12.50;75.60;;;-142.21;98.74;112049.66;5073636;28;20534;-74
2022/11/24 00:28:33;;;;;;;8.20;3.90;;;12.50;75.90;;;-142.21;98.41;112049.66;5072388;28;20439;-74
2022/11/24 00:31:01;;;;;;;9.13;3.00;;;12.50;75.40;;;-142.21;97.73;112049.66;5074029;28;20435;-73
2022/11/24 00:33:28;;;;;;;10.53;3.33;;;12.40;75.40;;;-142.21;98.05;112049.66;5074363;28;20435;-74
2022/11/24 00:35:58;;;;;;;6.20;2.77;;;12.50;75.70;;;-142.21;97.60;112049.66;5073366;28;20439;-74
2022/11/24 00:38:26;;;;;;;7.70;2.80;;;12.50;75.60;;;-142.21;97.88;112049.66;5072997;28;20901;-74
2022/11/24 00:40:53;;;;;;;7.60;2.43;;;12.60;75.40;;;-142.21;97.67;112049.66;5074506;28;20443;-74
2022/11/24 00:43:21;;;;;;;6.47;2.67;;;12.60;75.20;;;-142.21;98.40;112049.66;5073785;28;20461;-74
2022/11/24 00:45:48;;;;;;;6.93;2.50;;;12.60;75.20;;;-142.21;98.48;112049.66;5074126;28;20455;-73
2022/11/24 00:48:15;;;;;;;5.50;2.67;;;12.80;75.40;;;-142.21;98.43;112049.66;5072428;28;20443;-73
2022/11/24 00:50:42;;;;;;;5.77;2.47;;;12.80;75.20;;;-142.21;98.62;112049.66;5074592;28;20440;-73
2022/11/24 00:53:11;;;;;;;5.97;2.23;;;12.80;74.80;;;-142.21;98.28;112049.66;5073231;28;21003;-73
2022/11/24 00:55:38;;;;;;;6.20;2.73;;;12.80;74.90;;;-142.21;98.20;112049.66;5073946;28;20443;-73
2022/11/24 00:58:05;;;;;;;9.47;2.10;;;12.90;74.90;;;-142.21;98.73;112049.66;5072232;28;20566;-73
2022/11/24 01:00:32;;;;;;;6.30;2.30;;;12.90;74.50;;;-142.21;98.48;112049.66;5073669;28;20450;-73
2022/11/24 01:02:59;;;;;;;6.17;2.20;;;12.90;74.40;;;-142.21;98.83;112049.66;5072949;28;21027;-73
2022/11/24 01:05:26;;;;;;;10.03;2.50;;;13.00;74.70;;;-142.21;99.46;112049.66;5073654;28;20451;-74
2022/11/24 01:07:53;;;;;;;3.77;2.07;;;12.90;74.70;;;-142.21;99.40;112049.66;5073482;28;20467;-73
2022/11/24 01:10:21;;;;;;;8.07;2.50;;;12.90;74.80;;;-142.21;99.26;112049.66;5071876;28;20454;-73
2022/11/24 01:12:49;;;;;;;6.33;2.00;;;12.90;75.00;;;-142.21;98.55;112049.66;5073992;28;20449;-73
2022/11/24 01:15:16;;;;;;;7.33;2.57;;;12.80;75.40;;;-142.21;98.79;112049.66;5073274;28;20451;-73
2022/11/24 01:17:43;;;;;;;6.47;2.63;;;12.80;75.40;;;-142.21;99.05;112049.66;5072931;28;20505;-72
2022/11/24 01:20:11;;;;;;;7.87;2.60;;;12.80;75.40;;;-142.21;98.36;112049.66;5073048;28;20470;-73
2022/11/24 01:22:38;;;;;;;8.00;2.90;;;12.90;75.50;;;-142.21;98.24;112049.66;5073786;28;20443;-73
2022/11/24 01:25:07;;;;;;;4.53;1.97;;;12.80;75.20;;;-142.21;97.77;112049.66;5072754;28;20475;-73
2022/11/24 01:27:35;;;;;;;5.00;2.17;;;12.80;75.40;;;-142.21;97.93;112049.66;5022507;28;20442;-74
2022/11/24 01:30:04;;;;;;;5.50;2.47;;;12.80;75.20;;;-142.21;97.64;112049.66;5063649;28;20443;-74
2022/11/24 01:32:32;;;;;;;5.10;2.20;;;12.80;75.30;;;-142.21;97.39;112049.66;5073259;28;20474;-73
2022/11/24 01:34:59;;;;;;;5.43;2.60;;;12.80;75.30;;;-142.21;97.12;112049.66;5073380;28;20440;-73
2022/11/24 01:37:26;;;;;;;6.87;2.50;;;12.80;76.00;;;-142.21;97.21;112049.66;5073439;28;21060;-74
2022/11/24 01:39:53;;;;;;;5.93;2.40;;;12.90;75.10;;;-142.21;97.04;112049.66;5073408;28;20450;-74
2022/11/24 01:42:20;;;;;;;6.63;2.43;;;12.90;75.10;;;-142.21;97.56;112049.66;5056030;28;20458;-74
2022/11/24 01:45:12;;;;;;;3.13;2.10;;;12.90;74.90;;;-142.21;97.67;112049.66;5066598;28;20447;-74
2022/11/24 01:47:41;;;;;;;4.67;2.07;;;13.00;74.70;;;-142.21;97.22;112049.66;5072966;28;20498;-74
2022/11/24 01:50:16;;;;;;;7.53;2.13;;;12.90;74.60;;;-142.21;97.47;112049.66;5072350;28;20439;-74
2022/11/24 01:52:50;;;;;;;4.03;1.77;;;12.80;74.70;;;-142.21;96.97;112049.66;5072946;28;20431;-74
2022/11/24 01:55:22;;;;;;;3.63;2.13;;;12.90;74.80;;;-142.21;96.73;112049.66;5072741;28;20443;-73
2022/11/24 01:57:56;;;;;;;3.93;1.97;;;12.90;74.80;;;-142.21;97.36;112049.66;5072903;28;20474;-74
2022/11/24 02:00:25;;;;;;;4.50;1.60;;;12.90;74.70;;;-142.21;97.28;112049.66;5072450;28;20791;-74
2022/11/24 02:02:53;;;;;;;4.40;1.83;;;12.90;74.60;;;-142.21;97.24;112049.66;5072044;28;20447;-74
2022/11/24 02:05:28;;;;;;;5.73;1.97;;;12.90;74.80;;;-142.21;97.68;112049.66;5060666;28;20469;-75
2022/11/24 02:08:00;;;;;;;3.20;1.80;;;12.90;74.60;;;-142.21;97.46;112049.66;5073250;28;20431;-75
2022/11/24 02:10:28;;;;;;;4.77;2.33;;;12.90;74.50;;;-142.21;97.20;112049.66;5072332;28;20513;-73
2022/11/24 02:12:59;;;;;;;5.43;2.40;;;12.90;74.50;;;-142.21;96.83;112049.66;5072763;28;20544;-73
2022/11/24 02:15:29;;;;;;;4.77;2.30;;;12.90;74.50;;;-142.21;96.86;112049.66;5061560;28;20850;-73
2022/11/24 02:17:58;;;;;;;4.07;1.80;;;12.90;74.50;;;-142.21;96.81;112049.66;5072350;28;20486;-73
2022/11/24 02:20:26;;;;;;;11.37;2.17;;;13.00;74.50;;;-142.21;97.04;112049.66;5072237;28;20470;-74
2022/11/24 02:23:02;;;;;;;6.13;2.10;;;13.00;74.40;;;-142.21;96.78;112049.66;5071884;28;20439;-72
2022/11/24 02:25:39;;;;;;;5.57;2.13;;;12.90;74.40;;;-142.21;97.50;112049.66;5071322;28;20478;-74
2022/11/24 02:28:15;;;;;;;5.07;1.70;;;12.90;74.50;;;-142.21;98.06;112049.66;5070029;28;20439;-74
2022/11/24 02:30:42;;;;;;;4.50;2.07;;;13.00;74.60;;;-142.21;96.99;112049.66;5062303;28;20488;-73
2022/11/24 02:33:12;;;;;;;6.07;2.20;;;13.00;74.10;;;-142.21;96.85;112049.66;5071677;28;20455;-74
2022/11/24 02:35:40;;;;;;;4.00;1.73;;;13.00;74.40;;;-142.21;97.45;112049.66;5073219;28;20440;-73
2022/11/24 02:38:09;;;;;;;5.40;1.77;;;13.00;74.20;;;-142.21;97.26;112049.66;5071764;28;21013;-73
2022/11/24 02:40:41;;;;;;;4.07;2.10;;;13.00;74.10;;;-142.21;97.19;112049.66;5070451;28;20451;-73
2022/11/24 02:43:16;;;;;;;3.00;1.63;;;12.90;74.40;;;-142.21;96.83;112049.66;5071685;28;20525;-73
2022/11/24 02:45:43;;;;;;;4.57;1.70;;;12.90;74.60;;;-142.21;97.31;112049.66;5072033;28;20447;-73
2022/11/24 02:48:10;;;;;;;3.20;1.77;;;12.90;74.40;;;-142.21;97.05;112049.66;5071075;28;20439;-73
2022/11/24 02:50:38;;;;;;;6.33;1.90;;;12.90;74.50;;;-142.21;97.26;112049.66;5070822;28;20483;-73
2022/11/24 02:53:05;;;;;;;5.97;2.10;;;12.90;74.60;;;-142.21;97.65;112049.66;5071169;28;20443;-73
2022/11/24 02:55:32;;;;;;;6.83;2.17;;;12.80;75.40;;;-142.21;98.09;112049.66;5071783;28;20543;-73
2022/11/24 02:57:59;;;;;;;5.40;1.70;;;12.90;74.60;;;-142.21;98.33;112049.66;5069684;28;20475;-74
2022/11/24 03:00:28;;;;;;;3.77;1.97;;;13.00;74.50;;;-142.21;98.28;112049.66;5071142;28;20447;-73
2022/11/24 03:02:55;;;;;;;5.30;2.03;;;12.90;74.60;;;-142.21;98.50;112049.66;5071542;28;20455;-73
2022/11/24 03:05:22;;;;;;;4.47;2.30;;;12.80;74.80;;;-142.21;98.43;112049.66;5071192;28;20453;-74
2022/11/24 03:07:49;;;;;;;6.20;2.43;;;12.90;74.90;;;-142.21;98.66;112049.66;5071886;28;20482;-74
2022/11/24 03:10:17;;;;;;;5.07;2.17;;;12.90;74.60;;;-142.21;99.01;112049.66;5070903;28;20470;-73
2022/11/24 03:12:44;;;;;;;4.37;3.30;;;12.90;74.80;;;-142.21;98.99;112049.66;5071590;28;20458;-73
2022/11/24 03:15:11;;;;;;;4.83;2.87;;;12.90;74.70;;;-142.21;98.94;112049.66;5070166;28;20943;-73
2022/11/24 03:17:40;;;;;;;5.03;2.33;;;12.80;74.80;;;-142.21;99.19;112049.66;5071678;28;20439;-74
2022/11/24 03:20:09;;;;;;;5.63;2.23;;;12.80;74.90;;;-142.21;99.55;112049.66;5070529;28;20963;-73
2022/11/24 03:22:37;;;;;;;5.50;1.93;;;12.80;75.10;;;-142.21;99.48;112049.66;5069272;28;20530;-73
2022/11/24 03:25:05;;;;;;;4.90;2.10;;;12.80;75.20;;;-142.21;99.79;112049.66;5070256;28;20546;-73
2022/11/24 03:27:32;;;;;;;7.50;2.10;;;12.80;75.40;;;-142.21;99.65;112049.66;5070590;28;20866;-74
2022/11/24 03:29:59;;;;;;;6.50;2.00;;;12.70;75.20;;;-142.21;100.00;112049.66;5071177;28;20519;-73
2022/11/24 03:32:26;;;;;;;3.67;1.93;;;12.70;75.20;;;-142.21;99.85;112049.66;5070407;28;20545;-73
2022/11/24 03:34:55;;;;;;;3.97;2.20;;;12.80;75.30;;;-142.21;100.00;112049.66;5070751;28;20525;-73
2022/11/24 03:37:22;;;;;;;6.47;1.90;;;12.70;75.30;;;-142.21;100.00;112049.66;5071137;28;20475;-74
2022/11/24 03:39:50;;;;;;;7.20;2.33;;;12.80;75.20;;;-142.21;100.00;112049.66;5065034;28;20564;-73
2022/11/24 03:42:17;;;;;;;6.10;2.30;;;12.80;75.40;;;-142.21;100.00;112049.66;5070730;28;20522;-74
2022/11/24 03:44:44;;;;;;;4.90;2.00;;;12.80;75.40;;;-142.21;100.00;112049.66;5071469;28;20440;-74
2022/11/24 03:47:12;;;;;;;6.63;2.37;;;12.80;75.10;;;-142.21;100.00;112049.66;5035706;28;20444;-73
2022/11/24 03:49:40;;;;;;;7.73;2.50;;;12.90;74.90;;;-142.21;100.00;112049.66;5071563;28;20777;-73
2022/11/24 03:52:09;;;;;;;4.63;2.10;;;12.90;74.70;;;-142.21;100.00;112049.66;5070051;28;20448;-74
2022/11/24 03:54:36;;;;;;;8.83;2.57;;;12.90;74.50;;;-142.21;100.00;112049.66;5071124;28;20534;-74
2022/11/24 03:57:03;;;;;;;6.67;2.10;;;12.90;74.60;;;-142.21;100.00;112049.66;5071102;28;20447;-74
2022/11/24 03:59:31;;;;;;;5.97;2.33;;;12.80;74.70;;;-142.21;100.00;112049.66;5070725;28;20510;-74
2022/11/24 04:01:58;;;;;;;7.27;2.17;;;12.80;75.10;;;-142.21;100.00;112049.66;5070228;28;20542;-73
2022/11/24 04:04:25;;;;;;;5.37;2.53;;;12.60;75.20;;;-142.21;100.00;112049.66;5070215;28;20447;-74
2022/11/24 04:06:52;;;;;;;7.03;2.20;;;12.60;75.20;;;-142.21;100.00;112049.66;5069656;28;20444;-74
2022/11/24 04:09:20;;;;;;;6.47;2.53;;;12.70;75.30;;;-142.21;100.00;112049.66;5050322;28;20440;-73
2022/11/24 04:14:32;;;;;;;7.97;2.43;;;12.70;75.30;;;-142.21;100.00;112049.66;5070341;28;20407;-73
2022/11/24 04:16:59;;;;;;;8.00;2.60;;;12.50;75.40;;;-142.21;100.00;112049.66;5069020;28;20443;-73
2022/11/24 04:19:26;;;;;;;6.07;2.20;;;12.50;75.90;;;-142.21;100.00;112049.66;5070415;28;20495;-73
2022/11/24 04:21:53;;;;;;;4.70;2.73;;;12.40;76.10;;;-142.21;100.00;112049.66;5070584;28;20536;-73
2022/11/24 04:24:21;;;;;;;7.23;2.27;;;12.40;76.00;;;-142.21;100.00;112049.66;5069227;28;20483;-74
2022/11/24 04:26:48;;;;;;;4.70;2.20;;;12.40;76.30;;;-142.21;100.00;112049.66;5070747;28;20951;-73
2022/11/24 04:29:16;;;;;;;5.77;3.10;;;12.30;76.40;;;-142.21;99.43;112049.66;5069807;28;20522;-72
2022/11/24 04:31:43;;;;;;;8.23;4.27;;;12.30;76.40;;;-142.21;99.83;112049.66;5070766;28;20477;-73
2022/11/24 04:34:11;;;;;;;7.13;4.23;;;12.20;77.20;;;-142.21;99.53;112049.66;5070096;28;20455;-74
2022/11/24 04:36:39;;;;;;;6.23;2.50;;;12.20;76.50;;;-142.21;99.30;112049.66;5070510;28;20444;-74
2022/11/24 04:39:07;;;;;;;8.10;2.43;;;12.20;76.50;;;-142.21;99.12;112049.66;5070477;28;20483;-73
2022/11/24 04:41:35;;;;;;;5.40;3.00;;;12.20;76.50;;;-142.21;99.28;112049.66;5069589;28;20458;-73
2022/11/24 04:44:02;;;;;;;5.70;2.57;;;12.20;76.40;;;-142.21;98.96;112049.66;5051766;28;20435;-73
2022/11/24 04:46:30;;;;;;;6.57;2.77;;;12.30;76.00;;;-142.21;98.74;112049.66;5064532;28;21356;-73
2022/11/24 04:48:57;;;;;;;8.07;2.73;;;12.40;75.50;;;-142.21;98.06;112049.66;5073858;28;20447;-74
2022/11/24 04:51:24;;;;;;;6.40;2.80;;;12.40;75.20;;;-142.21;98.67;112049.66;5070293;28;20448;-73
2022/11/24 04:53:51;;;;;;;6.43;2.30;;;12.50;75.40;;;-142.21;97.75;112049.66;5054818;28;20440;-74
2022/11/24 04:56:18;;;;;;;7.57;2.43;;;12.50;75.10;;;-142.21;98.41;112049.66;5070717;28;20943;-74
2022/11/24 04:58:48;;;;;;;7.67;2.77;;;12.50;75.10;;;-142.21;98.33;112049.66;5074123;28;20474;-74
2022/11/24 05:01:16;;;;;;;7.60;2.50;;;12.40;75.00;;;-142.21;98.06;112049.66;5075331;28;20436;-74
2022/11/24 05:03:43;;;;;;;8.07;2.87;;;12.40;75.00;;;-142.21;97.29;112049.66;5073482;28;20479;-73
2022/11/24 05:06:10;;;;;;;6.93;2.40;;;12.50;75.10;;;-142.21;97.36;112049.66;5074059;28;20443;-74
2022/11/24 05:08:37;;;;;;;8.90;2.43;;;12.50;75.00;;;-142.21;97.68;112049.66;5073598;28;20440;-74
2022/11/24 05:11:05;;;;;;;4.73;2.37;;;12.50;75.10;;;-142.21;97.82;112049.66;5074117;28;20443;-73
2022/11/24 05:13:32;;;;;;;10.17;2.67;;;12.50;75.10;;;-142.21;97.60;112049.66;5072216;28;20451;-74
2022/11/24 05:16:01;;;;;;;7.67;2.57;;;12.60;75.20;;;-142.21;97.36;112049.66;5074159;28;20443;-74
2022/11/24 05:18:29;;;;;;;10.07;5.10;;;12.50;75.10;;;-142.21;97.66;112049.66;5073172;28;20519;-74
2022/11/24 05:20:58;;;;;;;10.07;4.87;;;12.50;75.80;;;-142.21;97.68;112049.66;5073733;28;20447;-74
2022/11/24 05:23:25;;;;;;;5.43;2.93;;;12.40;75.00;;;-142.21;97.17;112049.66;5073010;28;20444;-73
2022/11/24 05:25:53;;;;;;;11.57;3.30;;;12.50;75.10;;;-142.21;96.85;112049.66;5071282;28;21008;-73
2022/11/24 05:28:20;;;;;;;7.70;3.33;;;12.40;75.00;;;-142.21;97.10;112049.66;5065630;28;20456;-74
2022/11/24 05:30:47;;;;;;;8.30;2.70;;;12.40;75.00;;;-142.21;97.02;112049.66;5072440;28;20452;-74
2022/11/24 05:33:18;;;;;;;9.70;2.57;;;12.50;75.10;;;-142.21;96.81;112049.66;5072547;28;20549;-73
2022/11/24 05:35:45;;;;;;;11.07;2.97;;;12.50;75.10;;;-142.21;96.87;112049.66;5072069;28;20451;-73
2022/11/24 05:38:12;;;;;;;7.07;2.80;;;12.50;75.00;;;-142.21;97.12;112049.66;5073075;28;20447;-74
2022/11/24 05:40:42;;;;;;;7.27;3.10;;;12.60;74.90;;;-142.21;96.66;112049.66;5073638;28;20550;-74
2022/11/24 05:43:11;;;;;;;6.77;3.07;;;12.60;74.70;;;-142.21;97.94;112049.66;5073383;28;20523;-74
2022/11/24 05:45:39;;;;;;;6.30;2.47;;;12.70;75.30;;;-142.21;99.51;112049.66;5073155;28;20874;-73
2022/11/24 05:48:08;;;;;;;7.67;2.87;;;12.70;75.30;;;-142.21;100.00;112049.66;5066644;28;20451;-73
2022/11/24 05:50:36;;;;;;;7.93;2.50;;;12.70;75.50;;;-142.21;100.00;112049.66;5072955;28;20535;-73
2022/11/24 05:53:04;;;;;;;7.13;2.70;;;12.70;75.80;;;-142.21;100.00;112049.66;5079487;28;20442;-73
2022/11/24 05:55:32;;;;;;;7.83;2.87;;;12.80;75.90;;;-142.21;100.00;112049.66;5080861;28;20530;-73
2022/11/24 05:58:00;;;;;;;10.67;3.03;;;12.70;75.80;;;-142.21;100.00;112049.66;5072540;28;20439;-74
2022/11/24 06:00:28;;;;;;;8.33;4.60;;;12.70;76.00;;;-142.21;100.00;112049.66;5071707;28;20483;-78
2022/11/24 06:02:57;;;;;;;7.80;3.67;;;12.70;76.40;;;-142.21;100.00;112049.66;5073521;28;20546;-79
2022/11/24 06:05:26;;;;;;;7.73;3.33;;;12.60;76.80;;;-142.21;100.00;112049.66;5072947;28;20452;-78
2022/11/24 06:07:55;;;;;;;10.43;4.23;;;12.50;77.60;;;-142.21;100.00;112049.66;5073037;28;20479;-76
2022/11/24 06:10:23;;;;;;;12.70;3.53;;;12.50;78.30;;;-142.21;100.00;112049.66;5061285;28;20509;-76
2022/11/24 06:12:51;;;;;;;7.17;2.63;;;12.40;78.90;;;-142.21;100.00;112049.66;5073062;28;20830;-81
2022/11/24 06:15:18;;;;;;;9.83;4.67;;;12.40;79.50;;;-142.21;100.00;112049.66;5072278;28;20531;-79
2022/11/24 06:17:54;;;;;;;12.50;3.90;;;12.30;80.50;;;-142.21;100.00;112049.66;5072420;28;20470;-81
2022/11/24 06:20:22;;;;;;;11.27;2.73;;;12.10;81.70;;;-142.21;100.00;112049.66;5070840;28;20470;-84
2022/11/24 06:22:49;;;;;;;12.03;4.27;;;12.10;81.70;;;-142.21;100.00;112049.66;5071415;28;20972;-83
2022/11/24 06:25:18;;;;;;;7.80;2.87;;;12.20;81.60;;;-142.21;100.00;112049.66;5054594;28;20557;-82
2022/11/24 06:27:45;;;;;;;12.20;3.83;;;12.10;82.10;;;-142.21;100.00;112049.66;5067018;28;20472;-82
2022/11/24 06:30:15;;;;;;;13.40;4.07;;;12.20;82.60;;;-142.21;100.00;112049.66;5074300;28;20447;-77
2022/11/24 06:32:43;;;;;;;8.30;3.33;;;12.20;82.60;;;-142.21;100.00;112049.66;5074455;28;20549;-80
2022/11/24 06:35:12;;;;;;;12.53;3.37;;;12.20;82.70;;;-142.21;100.00;112049.66;5072345;28;20454;-73
2022/11/24 06:37:40;;;;;;;11.23;3.30;;;12.20;82.80;;;-142.21;100.00;112049.66;5069376;28;20530;-73
2022/11/24 06:40:09;;;;;;;12.47;3.10;;;12.30;82.80;;;-142.21;100.00;112049.66;5072725;28;20770;-72
2022/11/24 06:42:38;;;;;;;11.27;3.10;;;12.20;82.80;;;-142.21;100.00;112049.66;5071245;28;20829;-73
2022/11/24 06:45:07;;;;;;;6.87;2.23;;;12.20;83.20;;;-142.21;100.00;112049.66;5071180;28;20448;-73
2022/11/24 06:47:34;;;;;;;9.30;3.33;;;12.10;83.10;;;-142.21;100.00;112049.66;5069753;28;20440;-75
2022/11/24 06:50:02;;;;;;;11.30;3.20;;;12.10;83.10;;;-142.21;100.00;112049.66;5071379;28;20454;-75
2022/11/24 06:52:29;;;;;;;10.53;3.03;;;12.20;83.40;;;-142.21;100.00;112049.66;5071598;28;20497;-75
2022/11/24 06:54:57;;;;;;;12.03;2.90;;;12.10;83.70;;;-142.21;100.00;112049.66;5058702;28;20523;-76
2022/11/24 06:57:25;;;;;;;15.97;3.03;;;12.20;83.80;;;-142.21;100.00;112049.66;5062487;28;20526;-76
2022/11/24 06:59:54;;;;;;;7.57;2.87;;;12.20;84.10;;;-142.21;100.00;112049.66;5060478;28;20475;-75
2022/11/24 07:02:21;;;;;;;10.63;2.80;;;12.10;84.00;;;-142.21;100.00;112049.66;5053545;28;20464;-72
2022/11/24 07:04:49;;;;;;;15.00;3.20;;;12.10;84.20;;;-142.21;100.00;112049.66;5070979;28;20451;-72
2022/11/24 07:07:17;;;;;;;11.00;2.87;;;12.10;84.70;;;-142.21;100.00;112049.66;5071132;28;20455;-72
2022/11/24 07:09:44;;;;;;;10.63;2.83;;;12.10;84.70;;;-142.21;100.00;112049.66;5071793;28;20538;-72
2022/11/24 07:12:11;;;;;;;8.63;2.73;;;12.10;84.70;;;-142.21;100.00;112049.66;5072554;28;20588;-72
2022/11/24 07:14:38;;;;;;;10.50;2.70;;;12.10;84.30;;;-142.21;100.00;112049.66;5072057;28;20455;-72
2022/11/24 07:17:06;;;;;;;10.17;3.10;;;12.10;84.70;;;-142.21;100.00;112049.66;5071909;28;20538;-72
2022/11/24 07:19:33;;;;;;;10.30;2.87;;;12.00;84.60;;;-142.21;100.00;112049.66;5071282;28;20573;-72
2022/11/24 07:22:01;;;;;;;8.60;2.70;;;12.00;84.50;;;-142.21;100.00;112049.66;5071333;28;20475;-72
2022/11/24 07:24:28;;;;;;;10.13;3.80;;;12.00;84.30;;;-142.21;100.00;112049.66;5070920;28;20479;-73
2022/11/24 07:26:55;;;;;;;6.90;2.80;;;12.00;84.00;;;-142.21;100.00;112049.66;5070327;28;20448;-73
2022/11/24 07:29:22;;;;;;;5.13;2.10;;;11.90;83.80;;;-142.21;100.00;112049.66;5068741;28;20546;-72
2022/11/24 07:31:49;;;;;;;7.63;2.43;;;11.90;83.80;;;-142.21;100.00;112049.66;5061622;28;20492;-72
2022/11/24 07:34:18;;;;;;;10.00;2.07;;;12.00;84.00;;;-142.21;100.00;112049.66;5057853;28;20531;-72
2022/11/24 07:36:45;;;;;;;8.40;3.27;;;12.00;84.00;;;-142.21;100.00;112049.66;5070649;28;20444;-72
2022/11/24 07:39:12;;;;;;;6.63;2.80;;;12.10;83.50;;;-142.21;100.00;112049.66;5070547;28;20490;-71
2022/11/24 07:41:39;;;;;;;7.90;2.80;;;12.00;83.00;;;-142.21;100.00;112049.66;5070822;28;20458;-72
2022/11/24 07:44:07;;;;;;;9.20;2.40;;;12.00;84.10;;;-142.21;100.00;112049.66;5071417;28;20501;-72
2022/11/24 07:46:34;;;;;;;8.13;2.43;;;12.00;83.40;;;-142.21;100.00;112049.66;5070854;28;20451;-73
2022/11/24 07:49:01;;;;;;;7.20;2.37;;;12.00;82.90;;;-142.21;100.00;112049.66;5070703;28;20501;-72
2022/11/24 07:51:30;;;;;;;4.97;2.30;;;12.00;83.00;;;-142.21;100.00;112049.66;5070701;28;20431;-72
2022/11/24 07:53:57;;;;;;;4.90;2.03;;;12.10;82.90;;;-142.21;100.00;112049.66;5071174;28;20542;-72
2022/11/24 07:56:24;;;;;;;4.60;1.93;;;12.10;82.70;;;-142.21;100.00;112049.66;5070938;28;20530;-72
2022/11/24 07:58:52;;;;;;;6.07;1.97;;;12.10;82.60;;;-142.21;100.00;112049.66;5071026;28;20447;-72
2022/11/24 08:01:19;;;;;;;7.50;2.80;;;12.00;81.70;;;-142.21;100.00;112049.66;5071211;28;20849;-72
2022/11/24 08:03:47;;;;;;;6.37;2.50;;;12.00;81.90;;;-142.21;100.00;112049.66;5070669;28;21136;-72
2022/11/24 08:06:15;;;;;;;6.10;2.07;;;12.00;82.10;;;-142.21;100.00;112049.66;5070668;28;21043;-72
2022/11/24 08:08:44;;;;;;;7.23;3.17;;;12.00;81.80;;;-142.21;100.00;112049.66;5070340;28;20445;-72
2022/11/24 08:11:15;;;;;;;8.70;4.63;;;12.00;81.80;;;-142.21;100.00;112049.66;5071649;28;20772;-72
2022/11/24 08:13:44;;;;;;;4.73;2.33;;;12.00;81.70;;;-142.21;100.00;112049.66;5069812;28;20957;-72
2022/11/24 08:16:13;;;;;;;5.87;2.97;;;12.00;81.40;;;-142.21;100.00;112049.66;5071451;28;20440;-72
2022/11/24 08:18:41;;;;;;;4.03;2.10;;;12.00;81.70;;;-142.21;100.00;112049.66;5070667;28;21277;-72
2022/11/24 08:21:13;;;;;;;3.63;2.10;;;12.00;81.30;;;-142.21;100.00;112049.66;5074344;28;20544;-72
2022/11/24 08:23:40;;;;;;;7.63;4.27;;;11.90;81.50;;;-142.21;100.00;112049.66;5074182;28;20435;-73
2022/11/24 08:26:16;;;;;;;8.50;3.50;;;11.90;81.70;;;-142.21;100.00;112049.66;5075184;28;20437;-73
2022/11/24 08:28:44;;;;;;;5.33;2.57;;;11.90;82.00;;;-142.21;100.00;112049.66;5074374;28;20431;-72
2022/11/24 08:31:14;;;;;;;5.63;3.40;;;11.90;81.50;;;-142.21;100.00;112049.66;5074784;28;20522;-71
2022/11/24 08:33:42;;;;;;;5.80;2.40;;;11.90;81.50;;;-142.21;100.00;112049.66;5073931;28;20545;-72
2022/11/24 08:36:13;;;;;;;4.70;2.00;;;11.80;81.30;;;-142.21;100.00;112049.66;5074847;28;20483;-72
2022/11/24 08:38:41;;;;;;;6.70;3.27;;;11.80;81.50;;;-142.21;100.00;112049.66;5074081;28;20430;-72
2022/11/24 08:41:14;;;;;;;6.43;4.53;;;11.70;82.70;;;-142.21;100.00;112049.66;5074531;28;20570;-72
2022/11/24 08:43:41;;;;;;;3.10;2.00;;;11.70;81.90;;;-142.21;100.00;112049.66;5073779;28;20445;-73
2022/11/24 08:46:12;;;;;;;4.40;2.10;;;11.60;81.70;;;-142.21;100.00;112049.66;5074115;28;20435;-73
2022/11/24 08:48:40;;;;;;;5.90;2.57;;;11.60;81.90;;;-142.21;100.00;112049.66;5074193;28;20431;-73
2022/11/24 08:51:10;;;;;;;3.60;2.27;;;11.60;82.50;;;-142.21;100.00;112049.66;5073465;28;20445;-72
2022/11/24 08:53:39;;;;;;;3.93;2.93;;;11.70;82.10;;;-142.21;100.00;112049.66;5073718;28;20962;-72
2022/11/24 08:56:07;;;;;;;3.33;1.77;;;11.60;81.60;;;-142.21;100.00;112049.66;5074129;28;20445;-72
2022/11/24 08:58:37;;;;;;;3.17;2.00;;;11.60;81.60;;;-142.21;100.00;112049.66;5073714;28;20486;-72
2022/11/24 09:01:06;;;;;;;5.87;3.90;;;11.50;81.50;;;-142.21;100.00;112049.66;5074122;28;20493;-73
2022/11/24 09:03:34;;;;;;;6.77;5.07;;;11.50;81.50;;;-142.21;100.00;112049.66;5073563;28;21014;-72
2022/11/24 09:06:02;;;;;;;5.23;3.20;;;11.60;81.60;;;-142.21;100.00;112049.66;5074600;28;20443;-73
2022/11/24 09:08:30;;;;;;;7.67;5.67;;;11.60;81.10;;;-142.21;100.00;112049.66;5073750;28;20432;-73
2022/11/24 09:11:01;;;;;;;3.83;2.30;;;11.70;81.40;;;-142.21;100.00;112049.66;5074201;28;20612;-73
2022/11/24 09:13:28;;;;;;;6.07;4.03;;;11.80;81.00;;;-142.21;100.00;112049.66;5073242;28;20450;-72
2022/11/24 09:16:01;;;;;;;11.50;8.33;;;11.70;80.90;;;-142.21;100.00;112049.66;5073918;28;20449;-73
2022/11/24 09:18:28;;;;;;;3.53;1.90;;;11.70;81.00;;;-142.21;100.00;112049.66;5073033;28;20546;-72
2022/11/24 09:21:05;;;;;;;7.77;5.00;;;11.80;80.70;;;-142.21;100.00;112049.66;5074082;28;20483;-72
2022/11/24 09:23:32;;;;;;;3.93;2.50;;;11.80;80.70;;;-142.21;100.00;112049.66;5073119;28;20804;-72
2022/11/24 09:26:05;;;;;;;8.40;4.97;;;11.90;80.70;;;-142.21;100.00;112049.66;5073578;28;20918;-72
2022/11/24 09:28:33;;;;;;;4.00;2.97;;;11.90;80.50;;;-142.21;100.00;112049.66;5073322;28;20510;-73
2022/11/24 09:31:07;;;;;;;4.23;2.97;;;12.10;80.50;;;-142.21;100.00;112049.66;5072533;28;20475;-73
2022/11/24 09:33:35;;;;;;;2.37;1.90;;;12.10;80.00;;;-142.21;100.00;112049.66;5073242;28;20870;-73
2022/11/24 09:36:03;;;;;;;3.63;1.50;;;12.20;80.30;;;-142.21;100.00;112049.66;5073397;28;20963;-72
2022/11/24 09:38:31;;;;;;;7.40;5.03;;;12.10;79.90;;;-142.21;100.00;112049.66;5073023;28;20435;-73
2022/11/24 09:41:27;;;;;;;4.83;2.10;;;12.10;80.30;;;-142.21;100.00;112049.66;5073189;28;21124;-72
2022/11/24 09:44:05;;;;;;;4.13;2.63;;;12.30;80.10;;;-142.21;100.00;112049.66;5073327;28;20533;-72
2022/11/24 09:46:49;;;;;;;2.77;1.30;;;12.30;79.90;;;-142.21;100.00;112049.66;5072545;28;20475;-72
2022/11/24 09:49:27;;;;;;;6.10;1.83;;;12.40;79.90;;;-142.21;100.00;112049.66;5073279;28;20461;-72
2022/11/24 09:51:57;;;;;;;5.47;1.97;;;12.50;79.50;;;-142.21;100.00;112049.66;5073686;28;20431;-72
2022/11/24 09:54:29;;;;;;;3.70;1.47;;;12.60;79.30;;;-142.21;100.00;112049.66;5073031;28;20449;-72
2022/11/24 09:57:01;;;;;;;3.80;1.50;;;12.70;79.30;;;-142.21;100.00;112049.66;5073096;28;20438;-73
2022/11/24 09:59:28;;;;;;;5.00;1.83;;;12.70;79.20;;;-142.21;100.00;112049.66;5072052;28;20427;-72
2022/11/24 10:01:57;;;;;;;4.23;1.60;;;12.80;79.30;;;-142.21;100.00;112049.66;5073433;28;20554;-72
2022/11/24 10:04:28;;;;;;;3.83;1.60;;;13.10;79.00;;;-142.21;100.00;112049.66;5073061;28;20486;-72